Time;durP1;ratioP1;P1;durP2;ratioP2;P2;SDS_P1;SDS_P2;PMS_P1;PMS_P2;Temp;Humidity;BMP_temperature;BMP_pressure;BME280_temperature;BME280_humidity;BME280_pressure;Samples;Min_cycle;Max_cycle;Signal;HPM_P1;HPM_P2
2022/07/07 00:01:42;;;;;;;;;2.00;2.00;;;;;20.33;48.63;101890.53;5030019;28;52721;-53
2022/07/07 00:04:08;;;;;;;;;3.00;1.00;;;;;20.31;47.99;101882.66;5032220;28;46081;-48
2022/07/07 00:06:34;;;;;;;;;4.00;2.75;;;;;20.29;48.07;101890.72;5030492;28;45446;-51
2022/07/07 00:08:59;;;;;;;;;1.00;1.00;;;;;20.27;48.56;101883.75;5031708;28;45391;-48
2022/07/07 00:11:25;;;;;;;;;2.00;2.00;;;;;20.25;48.94;101881.16;5038562;28;45432;-47
2022/07/07 00:13:51;;;;;;;;;4.00;3.00;;;;;20.24;48.44;101882.09;5033482;28;46090;-47
2022/07/07 00:16:17;;;;;;;;;2.00;2.00;;;;;20.24;48.76;101883.91;5029592;28;45204;-50
2022/07/07 00:18:42;;;;;;;;;3.00;2.25;;;;;20.22;48.76;101875.13;5027251;28;45415;-46
2022/07/07 00:21:08;;;;;;;;;2.75;2.75;;;;;20.22;48.71;101873.34;5025141;28;45555;-48
2022/07/07 00:23:33;;;;;;;;;2.75;2.75;;;;;20.22;48.61;101872.47;5028534;28;46192;-48
2022/07/07 00:25:59;;;;;;;;;4.25;2.50;;;;;20.23;48.97;101875.06;5033268;28;45536;-48
2022/07/07 00:28:24;;;;;;;;;4.00;3.00;;;;;20.23;48.72;101880.38;5022918;28;45481;-46
2022/07/07 00:30:49;;;;;;;;;4.00;3.00;;;;;20.25;48.93;101877.63;5028274;28;64387;-49
2022/07/07 00:33:15;;;;;;;;;1.50;1.50;;;;;20.23;48.50;101868.88;5026850;28;72578;-45
2022/07/07 00:35:41;;;;;;;;;3.50;3.50;;;;;20.25;49.24;101869.66;5037733;28;45330;-46
2022/07/07 00:38:06;;;;;;;;;2.00;2.00;;;;;20.24;48.54;101874.13;5026328;28;45277;-52
2022/07/07 00:40:31;;;;;;;;;2.00;2.00;;;;;20.20;49.58;101864.59;5035415;28;71411;-50
2022/07/07 00:42:57;;;;;;;;;3.00;3.00;;;;;20.15;49.54;101860.41;5035494;28;45379;-51
2022/07/07 00:45:24;;;;;;;;;2.25;2.00;;;;;20.19;49.43;101851.38;5033239;28;45408;-49
2022/07/07 00:47:49;;;;;;;;;3.75;2.75;;;;;20.21;49.78;101850.34;5023211;28;45534;-47
2022/07/07 00:50:14;;;;;;;;;3.00;3.00;;;;;20.21;49.49;101849.50;5029430;28;45659;-51
2022/07/07 00:52:40;;;;;;;;;2.00;2.00;;;;;20.19;49.64;101851.38;5032195;28;47080;-51
2022/07/07 00:55:08;;;;;;;;;2.00;2.00;;;;;20.16;49.31;101844.41;5031340;28;45410;-49
2022/07/07 00:57:34;;;;;;;;;2.75;2.00;;;;;20.14;49.48;101845.44;5026184;28;46496;-49
2022/07/07 01:00:03;;;;;;;;;3.75;2.00;;;;;20.15;49.19;101841.81;5028020;28;45427;-47
2022/07/07 01:02:30;;;;;;;;;2.00;2.00;;;;;20.12;49.89;101840.19;5029453;28;47057;-47
2022/07/07 01:04:58;;;;;;;;;1.00;1.00;;;;;20.09;49.82;101837.66;5027278;28;45817;-45
2022/07/07 01:07:24;;;;;;;;;4.00;1.50;;;;;20.06;50.05;101828.06;5032970;28;45519;-46
2022/07/07 01:09:50;;;;;;;;;2.00;1.25;;;;;20.06;49.80;101829.84;5028288;28;45442;-47
2022/07/07 01:12:15;;;;;;;;;3.00;2.50;;;;;20.04;50.20;101831.72;5028789;28;46364;-45
2022/07/07 01:14:41;;;;;;;;;2.25;2.25;;;;;19.98;49.80;101827.56;5032521;28;70722;-46
2022/07/07 01:17:06;;;;;;;;;3.50;3.50;;;;;19.98;49.72;101824.06;5033894;28;68551;-51
2022/07/07 01:19:31;;;;;;;;;5.00;4.00;;;;;20.00;49.79;101824.84;5031148;28;51396;-46
2022/07/07 01:22:00;;;;;;;;;3.00;2.75;;;;;20.00;49.51;101822.19;5032166;28;48505;-49
2022/07/07 01:24:27;;;;;;;;;2.00;2.00;;;;;19.96;50.11;101832.09;5028417;28;45336;-49
2022/07/07 01:27:17;;;;;;;;;2.00;2.00;;;;;19.94;50.16;101825.13;5031990;28;45437;-48
2022/07/07 01:29:44;;;;;;;;;2.50;2.50;;;;;19.93;50.38;101821.63;5028526;28;45340;-50
2022/07/07 01:32:10;;;;;;;;;3.00;2.00;;;;;19.88;50.45;101816.56;5030393;28;47629;-46
2022/07/07 01:34:36;;;;;;;;;4.00;2.50;;;;;19.87;51.11;101822.78;5026067;28;45288;-46
2022/07/07 01:37:02;;;;;;;;;5.25;3.00;;;;;19.88;50.54;101820.97;5029817;28;45443;-45
2022/07/07 01:39:28;;;;;;;;;4.00;2.50;;;;;19.84;50.43;101822.94;5033930;28;45449;-46
2022/07/07 01:41:53;;;;;;;;;3.50;2.75;;;;;19.84;50.77;101816.75;5036512;28;58479;-52
2022/07/07 01:44:18;;;;;;;;;2.75;2.75;;;;;19.80;50.99;101812.53;5038357;28;73917;-45
2022/07/07 01:46:44;;;;;;;;;2.00;2.00;;;;;19.77;51.33;101818.00;5037440;28;58333;-50
2022/07/07 01:49:09;;;;;;;;;3.75;3.00;;;;;19.73;50.78;101810.16;5032071;28;53635;-50
2022/07/07 01:51:35;;;;;;;;;3.00;2.50;;;;;19.72;51.08;101812.88;5037843;28;45517;-50
2022/07/07 01:54:00;;;;;;;;;3.00;3.00;;;;;19.72;51.12;101810.22;5032031;28;70106;-48
2022/07/07 01:56:25;;;;;;;;;2.00;2.00;;;;;19.69;51.07;101805.91;5040067;28;67650;-46
2022/07/07 01:58:51;;;;;;;;;4.25;1.00;;;;;19.69;51.07;101805.06;5028467;28;72912;-48
2022/07/07 02:01:16;;;;;;;;;2.75;2.50;;;;;19.66;51.19;101806.06;5029649;28;74887;-46
2022/07/07 02:03:41;;;;;;;;;2.00;2.00;;;;;19.64;51.09;101805.28;5021510;28;61691;-50
2022/07/07 02:06:07;;;;;;;;;4.00;2.25;;;;;19.62;50.99;101798.31;5030708;28;45420;-46
2022/07/07 02:08:33;;;;;;;;;3.75;3.00;;;;;19.61;51.71;101797.44;5024903;28;45406;-46
2022/07/07 02:11:13;;;;;;;;;4.25;2.50;;;;;19.60;51.19;101786.91;5032471;28;73042;-45
2022/07/07 02:13:39;;;;;;;;;2.50;2.50;;;;;19.59;51.42;101793.16;5034648;28;45325;-49
2022/07/07 02:16:05;;;;;;;;;2.00;2.00;;;;;19.59;51.15;101774.56;5028990;28;45489;-51
2022/07/07 02:18:34;;;;;;;;;2.00;2.00;;;;;19.58;51.67;101781.66;5032130;28;45355;-51
2022/07/07 02:20:59;;;;;;;;;4.00;3.00;;;;;19.58;51.49;101780.81;5034229;28;47141;-51
2022/07/07 02:23:25;;;;;;;;;4.00;2.50;;;;;19.59;51.29;101782.53;5036121;28;45633;-51
2022/07/07 02:25:51;;;;;;;;;2.75;2.75;;;;;19.57;51.62;101779.94;5033284;28;64942;-52
2022/07/07 02:28:16;;;;;;;;;6.00;2.00;;;;;19.57;51.11;101787.91;5034238;28;45233;-51
2022/07/07 02:30:43;;;;;;;;;3.00;2.50;;;;;19.57;51.66;101797.69;5037289;28;46355;-52
2022/07/07 02:33:09;;;;;;;;;2.00;1.75;;;;;19.49;51.47;101785.59;5033169;28;73179;-48
2022/07/07 02:35:34;;;;;;;;;2.00;2.00;;;;;19.47;51.81;101791.94;5037119;28;45264;-46
2022/07/07 02:37:59;;;;;;;;;3.00;3.00;;;;;19.44;51.11;101790.31;5033753;28;45268;-52
2022/07/07 02:40:25;;;;;;;;;2.00;2.00;;;;;19.43;51.52;101788.56;5034905;28;48501;-48
2022/07/07 02:42:50;;;;;;;;;4.25;3.00;;;;;19.43;51.67;101785.91;5038924;28;70619;-49
2022/07/07 02:45:15;;;;;;;;;2.50;1.75;;;;;19.41;51.36;101787.78;5030087;28;55861;-51
2022/07/07 02:47:41;;;;;;;;;3.00;2.75;;;;;19.40;51.15;101779.91;5040744;28;45503;-50
2022/07/07 02:50:06;;;;;;;;;3.00;2.00;;;;;19.40;51.89;101793.16;5032864;28;56616;-47
2022/07/07 02:52:32;;;;;;;;;2.00;2.00;;;;;19.38;51.93;101792.38;5025041;28;45376;-46
2022/07/07 02:54:57;;;;;;;;;3.00;3.00;;;;;19.33;51.35;101784.63;5029545;28;67028;-49
2022/07/07 02:57:22;;;;;;;;;3.75;2.75;;;;;19.25;51.92;101787.66;5033851;28;45761;-46
2022/07/07 02:59:48;;;;;;;;;1.75;1.75;;;;;19.20;52.07;101788.81;5035825;28;68876;-51
2022/07/07 03:02:13;;;;;;;;;3.00;2.00;;;;;19.16;53.00;101793.38;5027028;28;73041;-48
2022/07/07 03:04:38;;;;;;;;;2.00;2.00;;;;;19.09;52.98;101794.59;5030685;28;45442;-47
2022/07/07 03:07:04;;;;;;;;;3.75;1.75;;;;;19.05;52.69;101793.00;5035834;28;62109;-46
2022/07/07 03:09:29;;;;;;;;;2.25;1.00;;;;;19.03;53.17;101784.25;5029228;28;70818;-50
2022/07/07 03:11:54;;;;;;;;;2.00;2.00;;;;;19.03;53.22;101785.09;5035741;28;64266;-49
2022/07/07 03:14:20;;;;;;;;;4.00;2.25;;;;;19.00;53.85;101779.97;5031510;28;64081;-48
2022/07/07 03:16:45;;;;;;;;;3.75;3.00;;;;;18.94;53.03;101773.13;5039244;28;45276;-48
2022/07/07 03:19:10;;;;;;;;;6.00;3.00;;;;;18.93;52.29;101783.84;5030108;28;71390;-47
2022/07/07 03:21:36;;;;;;;;;3.75;3.00;;;;;18.93;52.52;101781.19;5034394;28;45399;-47
2022/07/07 03:24:01;;;;;;;;;5.00;3.00;;;;;18.93;52.85;101779.38;5037536;28;45363;-47
2022/07/07 03:26:26;;;;;;;;;2.25;2.25;;;;;18.90;53.11;101783.97;5031502;28;49311;-49
2022/07/07 03:28:52;;;;;;;;;2.00;2.00;;;;;18.90;53.19;101783.97;5035941;28;68046;-48
2022/07/07 03:31:17;;;;;;;;;4.00;3.00;;;;;18.88;53.22;101777.88;5037137;28;59446;-50
2022/07/07 03:33:42;;;;;;;;;5.75;2.75;;;;;18.88;53.46;101786.69;5032833;28;45384;-48
2022/07/07 03:36:08;;;;;;;;;3.75;2.75;;;;;18.88;53.67;101781.38;5031340;28;70220;-47
2022/07/07 03:38:33;;;;;;;;;4.00;3.00;;;;;18.89;53.26;101783.13;5029334;28;65720;-50
2022/07/07 03:40:59;;;;;;;;;3.50;3.00;;;;;18.85;53.56;101778.84;5030178;28;62971;-45
2022/07/07 03:43:24;;;;;;;;;3.00;3.00;;;;;18.82;53.36;101781.63;5031741;28;45428;-47
2022/07/07 03:45:50;;;;;;;;;3.25;3.25;;;;;18.82;53.05;101778.97;5029825;28;45360;-51
2022/07/07 03:48:16;;;;;;;;;4.00;4.00;;;;;18.83;54.01;101777.22;5036475;28;46520;-51
2022/07/07 03:50:41;;;;;;;;;5.50;4.00;;;;;18.83;53.92;101772.75;5037499;28;45312;-48
2022/07/07 03:53:06;;;;;;;;;1.75;1.75;;;;;18.82;54.51;101773.69;5021334;28;62755;-53
2022/07/07 03:55:32;;;;;;;;;3.00;3.00;;;;;18.81;54.10;101771.94;5036032;28;71338;-51
2022/07/07 03:57:57;;;;;;;;;3.50;3.00;;;;;18.81;53.54;101773.75;5031672;28;72347;-49
2022/07/07 04:00:22;;;;;;;;;5.25;3.00;;;;;18.84;54.54;101771.84;5032364;28;66186;-46
2022/07/07 04:02:48;;;;;;;;;3.75;3.00;;;;;18.86;54.54;101766.47;5028744;28;64021;-48
2022/07/07 04:05:13;;;;;;;;;4.25;3.00;;;;;18.86;53.95;101769.97;5030355;28;71965;-46
2022/07/07 04:07:38;;;;;;;;;7.00;4.25;;;;;18.86;54.18;101771.78;5027191;28;71608;-47
2022/07/07 04:10:04;;;;;;;;;3.25;3.00;;;;;18.84;54.02;101769.19;5030057;28;70356;-46
2022/07/07 04:12:29;;;;;;;;;5.75;3.00;;;;;18.85;54.21;101762.94;5029942;28;45402;-46
2022/07/07 04:14:55;;;;;;;;;3.00;2.00;;;;;18.86;54.17;101763.81;5033361;28;45562;-51
2022/07/07 04:17:21;;;;;;;;;5.00;3.00;;;;;18.85;54.43;101765.59;5031362;28;46733;-46
2022/07/07 04:19:46;;;;;;;;;3.75;3.00;;;;;18.85;54.77;101762.94;5026911;28;70954;-50
2022/07/07 04:22:11;;;;;;;;;5.00;4.00;;;;;18.88;54.63;101769.91;5025370;28;52324;-51
2022/07/07 04:24:37;;;;;;;;;4.75;2.50;;;;;18.88;54.75;101772.56;5035182;28;72849;-49
2022/07/07 04:27:02;;;;;;;;;4.75;3.75;;;;;18.89;55.54;101771.63;5030537;28;68354;-51
2022/07/07 04:29:28;;;;;;;;;3.00;3.00;;;;;18.87;54.01;101765.53;5028337;28;45795;-51
2022/07/07 04:31:53;;;;;;;;;3.75;3.75;;;;;18.86;54.65;101767.31;5027917;28;65060;-52
2022/07/07 04:34:21;;;;;;;;;7.75;4.00;;;;;18.88;54.25;101770.75;5028061;28;73071;-46
2022/07/07 04:36:46;;;;;;;;;5.25;4.00;;;;;18.86;54.18;101772.63;5033927;28;46068;-50
2022/07/07 04:39:11;;;;;;;;;4.50;3.50;;;;;18.87;54.55;101768.19;5030871;28;59837;-46
2022/07/07 04:41:37;;;;;;;;;3.00;3.00;;;;;18.87;54.50;101769.03;5040030;28;65376;-49
2022/07/07 04:44:02;;;;;;;;;7.75;5.25;;;;;18.85;54.41;101773.56;5032469;28;66146;-48
2022/07/07 04:46:28;;;;;;;;;4.25;4.00;;;;;18.84;54.63;101777.16;5035299;28;46234;-48
2022/07/07 04:48:53;;;;;;;;;5.00;4.00;;;;;18.84;54.60;101782.47;5031738;28;45500;-49
2022/07/07 04:51:18;;;;;;;;;9.25;3.25;;;;;18.85;55.36;101793.91;5037732;28;45415;-51
2022/07/07 04:53:44;;;;;;;;;5.00;3.75;;;;;18.85;54.81;101794.78;5030474;28;45347;-51
2022/07/07 04:56:09;;;;;;;;;3.00;3.00;;;;;18.87;55.10;101800.00;5035213;28;62755;-50
2022/07/07 04:58:34;;;;;;;;;4.50;3.00;;;;;18.90;54.48;101790.13;5027020;28;63303;-52
2022/07/07 05:01:00;;;;;;;;;4.25;4.25;;;;;18.89;54.71;101799.03;5030811;28;63508;-48
2022/07/07 05:03:25;;;;;;;;;6.75;3.25;;;;;18.89;54.65;101806.97;5029062;28;68650;-47
2022/07/07 05:05:50;;;;;;;;;4.75;4.50;;;;;18.86;55.24;101804.47;5031471;28;73510;-46
2022/07/07 05:08:16;;;;;;;;;6.50;4.50;;;;;18.89;54.98;101814.06;5024572;28;67563;-51
2022/07/07 05:10:41;;;;;;;;;4.25;4.00;;;;;18.91;55.04;101810.44;5027857;28;45239;-48
2022/07/07 05:13:06;;;;;;;;;5.00;4.00;;;;;18.94;55.24;101814.72;5030740;28;70070;-50
2022/07/07 05:15:32;;;;;;;;;3.25;3.25;;;;;18.97;55.27;101814.59;5038184;28;59346;-50
2022/07/07 05:17:57;;;;;;;;;7.25;4.25;;;;;19.00;55.37;101808.25;5034776;28;73194;-47
2022/07/07 05:20:23;;;;;;;;;5.00;4.50;;;;;19.04;55.24;101812.53;5041342;28;61359;-45
2022/07/07 05:22:48;;;;;;;;;6.00;4.00;;;;;19.06;55.26;101806.19;5041411;28;45486;-49
2022/07/07 05:25:14;;;;;;;;;3.00;3.00;;;;;19.07;54.70;101804.41;5031296;28;64402;-50
2022/07/07 05:27:39;;;;;;;;;4.00;3.00;;;;;19.09;55.43;101811.38;5035504;28;70290;-51
2022/07/07 05:30:05;;;;;;;;;3.75;3.25;;;;;19.13;55.51;101806.78;5031582;28;63757;-50
2022/07/07 05:32:30;;;;;;;;;5.75;4.25;;;;;19.14;55.19;101808.50;5047924;28;46096;-49
2022/07/07 05:34:56;;;;;;;;;4.50;3.50;;;;;19.18;55.32;101819.88;5036382;28;46128;-48
2022/07/07 05:37:21;;;;;;;;;4.00;3.75;;;;;19.19;55.56;101819.75;5035507;28;65848;-49
2022/07/07 05:39:46;;;;;;;;;5.00;3.00;;;;;19.18;55.27;101807.44;5037055;28;45909;-47
2022/07/07 05:42:12;;;;;;;;;5.75;5.00;;;;;19.19;55.75;101803.84;5036198;28;45595;-48
2022/07/07 05:44:37;;;;;;;;;4.50;4.50;;;;;19.17;55.17;101813.66;5038769;28;45508;-48
2022/07/07 05:47:03;;;;;;;;;6.25;4.25;;;;;19.18;55.87;101814.56;5037969;28;45411;-48
2022/07/07 05:49:28;;;;;;;;;4.00;2.75;;;;;19.19;55.92;101819.75;5037684;28;45408;-48
2022/07/07 05:51:55;;;;;;;;;6.00;5.00;;;;;19.23;55.65;101813.41;5030283;28;66009;-48
2022/07/07 05:54:20;;;;;;;;;7.00;3.50;;;;;19.28;55.77;101811.41;5032655;28;47216;-50
2022/07/07 05:56:45;;;;;;;;;5.50;4.50;;;;;19.32;55.15;101812.97;5043971;28;45280;-48
2022/07/07 05:59:11;;;;;;;;;3.75;3.50;;;;;19.34;55.31;101816.41;5036498;28;45272;-47
2022/07/07 06:01:36;;;;;;;;;4.00;3.00;;;;;19.37;55.61;101827.81;5041514;28;45512;-50
2022/07/07 06:04:01;;;;;;;;;4.00;3.00;;;;;19.37;56.15;101822.50;5035465;28;71777;-49
2022/07/07 06:06:27;;;;;;;;;2.25;2.25;;;;;19.35;55.47;101823.44;5039157;28;46914;-51
2022/07/07 06:08:52;;;;;;;;;7.25;3.75;;;;;19.37;55.68;101838.44;5036628;28;62421;-46
2022/07/07 06:11:18;;;;;;;;;6.25;3.75;;;;;19.40;56.52;101830.34;5039642;28;45187;-47
2022/07/07 06:13:43;;;;;;;;;4.50;4.00;;;;;19.41;55.47;101848.84;5032876;28;45441;-47
2022/07/07 06:16:08;;;;;;;;;4.00;3.00;;;;;19.43;55.89;101846.97;5036691;28;64703;-48
2022/07/07 06:18:34;;;;;;;;;9.75;5.00;;;;;19.44;55.64;101856.69;5035791;28;61984;-47
2022/07/07 06:20:59;;;;;;;;;5.75;4.00;;;;;19.45;55.30;101853.06;5033764;28;45347;-48
2022/07/07 06:23:25;;;;;;;;;6.00;4.00;;;;;19.48;55.59;101858.25;5033249;28;64974;-48
2022/07/07 06:25:50;;;;;;;;;4.75;3.75;;;;;19.52;55.72;101870.44;5055659;28;45355;-45
2022/07/07 06:28:15;;;;;;;;;5.00;3.00;;;;;19.54;55.63;101865.06;5035370;28;64401;-48
2022/07/07 06:30:40;;;;;;;;;4.50;2.00;;;;;19.56;55.77;101871.16;5040097;28;45679;-47
2022/07/07 06:33:06;;;;;;;;;7.00;5.25;;;;;19.59;55.91;101863.06;5036061;28;60205;-49
2022/07/07 06:35:32;;;;;;;;;5.75;3.25;;;;;19.64;55.34;101871.66;5038257;28;45374;-47
2022/07/07 06:37:57;;;;;;;;;8.75;4.00;;;;;19.69;55.64;101866.16;5038998;28;45248;-49
2022/07/07 06:40:23;;;;;;;;;4.00;3.50;;;;;19.71;55.67;101870.44;5038806;28;45643;-51
2022/07/07 06:42:48;;;;;;;;;3.50;2.00;;;;;19.75;54.80;101873.84;5031262;28;75542;-49
2022/07/07 06:45:14;;;;;;;;;4.00;3.50;;;;;19.77;54.92;101871.13;5035923;28;56986;-46
2022/07/07 06:47:39;;;;;;;;;5.00;4.00;;;;;19.82;55.20;101866.44;5038950;28;45382;-48
2022/07/07 06:50:05;;;;;;;;;4.00;3.75;;;;;19.86;54.99;101876.84;5034554;28;67877;-46
2022/07/07 06:52:30;;;;;;;;;5.75;4.00;;;;;19.91;55.38;101873.97;5032117;28;46633;-45
2022/07/07 06:54:56;;;;;;;;;5.75;4.00;;;;;19.94;54.94;101879.16;5030887;28;45416;-48
2022/07/07 06:57:21;;;;;;;;;4.00;3.75;;;;;19.94;54.96;101876.50;5036152;28;68640;-43
2022/07/07 06:59:46;;;;;;;;;5.25;4.25;;;;;20.00;54.98;101870.00;5034562;28;72120;-45
2022/07/07 07:02:12;;;;;;;;;6.50;5.00;;;;;20.06;55.04;101867.94;5035952;28;70101;-46
2022/07/07 07:04:37;;;;;;;;;4.00;4.00;;;;;20.15;54.47;101876.38;5033200;28;68531;-46
2022/07/07 07:07:03;;;;;;;;;6.50;5.75;;;;;20.19;54.46;101875.28;5032011;28;66283;-43
2022/07/07 07:09:28;;;;;;;;;3.50;3.50;;;;;20.24;54.29;101871.47;5038077;28;45630;-46
2022/07/07 07:11:54;;;;;;;;;5.25;4.00;;;;;20.28;54.23;101883.66;5034487;28;60725;-44
2022/07/07 07:14:20;;;;;;;;;4.50;4.50;;;;;20.29;54.53;101890.72;5033976;28;45459;-48
2022/07/07 07:16:45;;;;;;;;;4.75;4.00;;;;;20.32;54.44;101891.50;5035073;28;45566;-46
2022/07/07 07:19:11;;;;;;;;;5.25;5.00;;;;;20.38;54.40;101894.72;5033189;28;72115;-47
2022/07/07 07:21:36;;;;;;;;;5.50;3.00;;;;;20.45;54.19;101895.25;5036479;28;70235;-50
2022/07/07 07:24:01;;;;;;;;;5.25;3.75;;;;;20.53;53.95;101903.72;5034418;28;59978;-46
2022/07/07 07:26:27;;;;;;;;;5.50;4.00;;;;;20.59;53.79;101907.84;5039403;28;45673;-44
2022/07/07 07:28:52;;;;;;;;;7.75;5.75;;;;;20.63;53.92;101904.16;5035157;28;52318;-46
2022/07/07 07:31:18;;;;;;;;;3.75;2.00;;;;;20.66;53.41;101907.53;5033300;28;46424;-50
2022/07/07 07:33:43;;;;;;;;;4.75;4.75;;;;;20.73;53.59;101921.34;5028165;28;45468;-45
2022/07/07 07:36:09;;;;;;;;;3.50;3.50;;;;;20.79;53.57;101905.09;5031901;28;45272;-50
2022/07/07 07:38:36;;;;;;;;;3.50;3.00;;;;;20.89;53.21;101910.78;5037412;28;45640;-48
2022/07/07 07:41:06;;;;;;;;;3.00;3.00;;;;;20.99;53.41;101911.19;5031976;28;46179;-49
2022/07/07 07:43:31;;;;;;;;;5.25;3.50;;;;;21.09;52.78;101922.19;5032857;28;45868;-48
2022/07/07 07:45:57;;;;;;;;;5.00;3.50;;;;;21.16;53.09;101927.13;5029311;28;67027;-50
2022/07/07 07:48:23;;;;;;;;;4.75;3.00;;;;;21.21;52.87;101924.19;5031173;28;45335;-47
2022/07/07 07:50:49;;;;;;;;;5.25;3.00;;;;;21.20;52.41;101923.34;5030083;28;65255;-47
2022/07/07 07:53:15;;;;;;;;;5.00;2.75;;;;;21.27;52.47;101931.03;5034582;28;45473;-46
2022/07/07 07:55:40;;;;;;;;;4.25;2.50;;;;;21.32;52.77;101932.50;5036811;28;45339;-46
2022/07/07 07:58:06;;;;;;;;;3.00;3.00;;;;;21.35;52.26;101928.81;5033776;28;45356;-49
2022/07/07 08:00:31;;;;;;;;;8.25;3.75;;;;;21.41;52.15;101937.31;5031536;28;45317;-46
2022/07/07 08:02:57;;;;;;;;;4.00;3.50;;;;;21.49;52.46;101928.94;5032439;28;45235;-50
2022/07/07 08:05:23;;;;;;;;;4.50;3.00;;;;;21.58;52.00;101925.81;5036452;28;45331;-49
2022/07/07 08:07:48;;;;;;;;;4.00;3.50;;;;;21.69;52.03;101924.34;5035871;28;45546;-49
2022/07/07 08:10:15;;;;;;;;;4.25;3.50;;;;;21.77;51.41;101930.97;5032855;28;45503;-49
2022/07/07 08:12:41;;;;;;;;;2.00;2.00;;;;;21.88;51.61;101924.19;5021775;28;45346;-51
2022/07/07 08:15:07;;;;;;;;;1.25;1.25;;;;;21.99;51.06;101921.75;5031227;28;45455;-48
2022/07/07 08:17:33;;;;;;;;;2.00;2.00;;;;;22.10;51.15;101919.38;5028331;28;45689;-52
2022/07/07 08:19:58;;;;;;;;;4.00;3.00;;;;;22.20;50.90;101914.34;5028738;28;58490;-49
2022/07/07 08:22:24;;;;;;;;;5.25;2.00;;;;;22.32;50.52;101919.03;5037585;28;45392;-50
2022/07/07 08:24:49;;;;;;;;;1.75;1.75;;;;;22.43;49.92;101913.06;5032324;28;45322;-47
2022/07/07 08:27:15;;;;;;;;;4.25;2.00;;;;;22.49;50.22;101917.22;5031148;28;45439;-52
2022/07/07 08:29:40;;;;;;;;;1.00;1.00;;;;;22.49;49.99;101911.88;5013329;28;48599;-47
2022/07/07 08:32:07;;;;;;;;;2.00;2.00;;;;;22.45;49.49;101912.97;5038061;28;45628;-51
2022/07/07 08:34:32;;;;;;;;;3.00;1.50;;;;;22.50;49.79;101916.25;5037107;28;45390;-48
2022/07/07 08:36:57;;;;;;;;;2.75;1.00;;;;;22.57;49.74;101917.59;5033708;28;45461;-47
2022/07/07 08:39:23;;;;;;;;;2.75;2.00;;;;;22.65;49.37;101902.00;5035804;28;55961;-49
2022/07/07 08:41:48;;;;;;;;;1.25;1.25;;;;;22.74;49.24;101898.78;5033932;28;65681;-47
2022/07/07 08:44:14;;;;;;;;;3.00;1.00;;;;;22.81;49.37;101909.94;5034812;28;45393;-47
2022/07/07 08:46:41;;;;;;;;;0.00;0.00;;;;;22.91;48.65;101913.78;5036553;28;72306;-50
2022/07/07 08:49:06;;;;;;;;;1.50;1.25;;;;;23.05;48.71;101915.63;5035113;28;45404;-49
2022/07/07 08:51:32;;;;;;;;;3.50;1.00;;;;;23.18;48.07;101926.44;5035187;28;60447;-51
2022/07/07 08:54:00;;;;;;;;;1.75;1.75;;;;;23.17;48.13;101929.19;5034040;28;45463;-48
2022/07/07 08:56:25;;;;;;;;;2.50;2.00;;;;;23.12;47.75;101933.03;5038009;28;72185;-51
2022/07/07 08:58:51;;;;;;;;;0.75;0.00;;;;;23.09;47.74;101933.19;5033414;28;49493;-49
2022/07/07 09:01:17;;;;;;;;;3.00;1.00;;;;;23.08;47.76;101926.13;5034643;28;45320;-52
2022/07/07 09:03:42;;;;;;;;;5.00;2.00;;;;;23.12;47.53;101916.13;5037258;28;45431;-50
2022/07/07 09:06:08;;;;;;;;;8.00;6.25;;;;;23.27;47.31;101919.69;5037984;28;57261;-49
2022/07/07 09:08:33;;;;;;;;;2.50;1.00;;;;;23.46;47.50;101919.38;5035403;28;59478;-51
2022/07/07 09:10:59;;;;;;;;;5.75;1.25;;;;;23.62;47.04;101920.13;5037286;28;45252;-55
2022/07/07 09:13:26;;;;;;;;;1.00;0.00;;;;;23.77;46.50;101918.28;5038683;28;60601;-50
2022/07/07 09:15:53;;;;;;;;;0.00;0.00;;;;;23.83;45.78;101927.75;5034955;28;45537;-50
2022/07/07 09:18:29;;;;;;;;;3.00;0.75;;;;;23.86;46.24;101931.09;5038764;28;45470;-51
2022/07/07 09:20:55;;;;;;;;;2.50;1.75;;;;;23.82;45.66;101934.09;5038792;28;45738;-50
2022/07/07 09:23:20;;;;;;;;;1.00;0.00;;;;;23.70;46.13;101938.34;5033033;28;45362;-48
2022/07/07 09:25:45;;;;;;;;;1.00;1.00;;;;;23.61;45.94;101929.09;5031989;28;66152;-49
2022/07/07 09:28:11;;;;;;;;;0.50;0.50;;;;;23.55;46.01;101944.66;5027214;28;70190;-47
2022/07/07 09:30:38;;;;;;;;;2.00;1.00;;;;;23.50;46.02;101939.63;5033870;28;73188;-50
2022/07/07 09:33:06;;;;;;;;;2.00;1.50;;;;;23.54;46.25;101945.63;5029588;28;45272;-48
2022/07/07 09:38:18;;;;;;;;;1.75;1.75;;;;;23.72;46.06;101944.44;5036637;28;45748;-49
2022/07/07 09:41:13;;;;;;;;;2.00;0.25;;;;;24.01;46.07;101947.09;5032691;28;45769;-47
2022/07/07 09:43:53;;;;;;;;;2.75;2.00;;;;;24.33;45.99;101950.38;5035933;28;45574;-47
2022/07/07 09:46:20;;;;;;;;;2.00;1.00;;;;;24.49;45.22;101952.88;5035420;28;45701;-51
2022/07/07 09:48:48;;;;;;;;;1.00;1.00;;;;;24.44;45.32;101965.72;5034875;28;46210;-53
2022/07/07 09:51:18;;;;;;;;;5.50;2.00;;;;;24.24;45.00;101973.22;5034647;28;45399;-49
2022/07/07 09:54:07;;;;;;;;;3.25;2.75;;;;;24.01;45.30;101977.41;5035034;28;45293;-48
2022/07/07 09:56:39;;;;;;;;;1.00;1.00;;;;;23.80;45.48;101976.94;5034432;28;45349;-47
2022/07/07 09:59:07;;;;;;;;;2.00;1.00;;;;;23.64;45.49;101984.19;5033285;28;46331;-51
2022/07/07 10:01:36;;;;;;;;;1.75;1.75;;;;;23.54;46.09;101996.41;5040739;28;45431;-47
2022/07/07 10:04:04;;;;;;;;;2.50;1.00;;;;;23.45;45.89;101989.81;5035670;28;45476;-49
2022/07/07 10:06:32;;;;;;;;;3.25;2.00;;;;;23.39;46.48;101999.06;5037133;28;45218;-47
2022/07/07 10:09:02;;;;;;;;;2.00;2.00;;;;;23.23;46.32;102012.50;5019805;28;47063;-50
2022/07/07 10:11:40;;;;;;;;;1.00;1.00;;;;;23.06;46.52;102010.81;5039883;28;45226;-47
2022/07/07 10:14:13;;;;;;;;;4.25;4.25;;;;;22.89;46.69;102017.09;5028736;28;45464;-48
2022/07/07 10:16:40;;;;;;;;;1.00;1.00;;;;;22.77;46.57;102014.31;5035639;28;45225;-48
2022/07/07 10:19:05;;;;;;;;;0.75;0.75;;;;;22.60;46.32;102016.16;5029799;28;46180;-49
2022/07/07 10:21:31;;;;;;;;;1.00;1.00;;;;;22.48;46.45;102025.69;5036001;28;45451;-49
2022/07/07 10:23:57;;;;;;;;;1.50;1.00;;;;;22.40;47.14;102027.06;5029133;28;45467;-46
2022/07/07 10:26:40;;;;;;;;;0.50;0.50;;;;;22.32;47.23;102023.03;5038494;28;66216;-48
2022/07/07 10:29:07;;;;;;;;;0.00;0.00;;;;;22.28;46.92;102024.16;5036286;28;45685;-45
2022/07/07 10:31:33;;;;;;;;;1.00;1.00;;;;;22.33;47.21;102029.25;5035496;28;45683;-51
2022/07/07 10:34:01;;;;;;;;;5.00;3.50;;;;;22.41;47.44;102026.13;5035691;28;45573;-47
2022/07/07 10:36:36;;;;;;;;;19.50;14.50;;;;;22.49;47.48;102030.09;5038122;28;45221;-50
2022/07/07 10:39:02;;;;;;;;;4.00;2.75;;;;;22.61;47.15;102044.56;5037182;28;45205;-49
2022/07/07 10:41:27;;;;;;;;;14.25;12.00;;;;;22.69;47.24;102044.97;5033329;28;45280;-50
2022/07/07 10:44:05;;;;;;;;;21.00;14.00;;;;;22.86;47.15;102043.13;5032347;28;45199;-51
2022/07/07 10:46:32;;;;;;;;;10.75;9.25;;;;;22.99;46.53;102040.63;5037984;28;45382;-47
2022/07/07 10:49:09;;;;;;;;;6.25;5.00;;;;;23.05;46.63;102042.94;5033024;28;46814;-49
2022/07/07 10:51:52;;;;;;;;;8.75;5.00;;;;;23.03;46.26;102052.81;5051449;28;45843;-47
2022/07/07 10:54:32;;;;;;;;;7.75;6.50;;;;;22.98;46.74;102052.22;5036963;28;45380;-45
2022/07/07 10:56:59;;;;;;;;;5.75;4.50;;;;;22.97;46.41;102047.84;5038863;28;45179;-50
2022/07/07 10:59:25;;;;;;;;;8.25;4.75;;;;;22.91;46.51;102052.59;5031226;28;45429;-48
2022/07/07 11:02:02;;;;;;;;;2.50;2.50;;;;;22.87;46.58;102056.38;5035443;28;45340;-49
2022/07/07 11:04:44;;;;;;;;;4.50;4.50;;;;;22.80;46.44;102054.16;5030395;28;45502;-49
2022/07/07 11:07:15;;;;;;;;;5.75;3.00;;;;;22.76;46.70;102056.16;5035864;28;45474;-47
2022/07/07 11:10:00;;;;;;;;;2.00;2.00;;;;;22.68;46.60;102055.72;5035658;28;45336;-49
2022/07/07 11:12:53;;;;;;;;;2.00;2.00;;;;;22.63;46.74;102050.66;5028912;28;45246;-47
2022/07/07 11:15:21;;;;;;;;;8.25;7.25;;;;;22.70;47.28;102061.81;5032375;28;45415;-45
2022/07/07 11:17:57;;;;;;;;;5.00;5.00;;;;;22.84;46.73;102061.03;5039058;28;45303;-46
2022/07/07 11:20:29;;;;;;;;;8.00;5.25;;;;;23.12;46.64;102065.66;5035231;28;46169;-46
2022/07/07 11:23:11;;;;;;;;;10.50;6.00;;;;;23.45;45.77;102070.81;5032570;28;45816;-46
2022/07/07 11:25:37;;;;;;;;;5.50;5.50;;;;;23.57;45.45;102063.00;5031852;28;45494;-46